sensor_id;sensor_type;location;lat;lon;timestamp;P1;durP1;ratioP1;P2;durP2;ratioP2
43487;SDS011;29078;41.932;25.554;2023-02-08T00:00:59;7.83;;;6.63;;
43487;SDS011;29078;41.932;25.554;2023-02-08T00:03:24;8.27;;;6.37;;
43487;SDS011;29078;41.932;25.554;2023-02-08T00:05:52;9.07;;;7.20;;
43487;SDS011;29078;41.932;25.554;2023-02-08T00:08:17;7.63;;;6.33;;
43487;SDS011;29078;41.932;25.554;2023-02-08T00:10:42;8.23;;;6.03;;
43487;SDS011;29078;41.932;25.554;2023-02-08T00:13:08;6.83;;;6.03;;
43487;SDS011;29078;41.932;25.554;2023-02-08T00:15:33;10.83;;;6.67;;
43487;SDS011;29078;41.932;25.554;2023-02-08T00:17:59;12.30;;;7.83;;
43487;SDS011;29078;41.932;25.554;2023-02-08T00:20:24;10.67;;;7.30;;
43487;SDS011;29078;41.932;25.554;2023-02-08T00:22:50;10.27;;;7.33;;
43487;SDS011;29078;41.932;25.554;2023-02-08T00:25:15;12.80;;;7.23;;
43487;SDS011;29078;41.932;25.554;2023-02-08T00:27:40;9.30;;;7.20;;
43487;SDS011;29078;41.932;25.554;2023-02-08T00:30:06;9.50;;;7.80;;
43487;SDS011;29078;41.932;25.554;2023-02-08T00:32:34;8.47;;;6.67;;
43487;SDS011;29078;41.932;25.554;2023-02-08T00:34:59;8.60;;;5.97;;
43487;SDS011;29078;41.932;25.554;2023-02-08T00:37:25;7.30;;;6.20;;
43487;SDS011;29078;41.932;25.554;2023-02-08T00:39:50;8.97;;;5.77;;
43487;SDS011;29078;41.932;25.554;2023-02-08T00:42:16;6.70;;;5.67;;
43487;SDS011;29078;41.932;25.554;2023-02-08T00:44:41;7.67;;;5.23;;
43487;SDS011;29078;41.932;25.554;2023-02-08T00:47:07;6.63;;;5.53;;
43487;SDS011;29078;41.932;25.554;2023-02-08T00:49:32;7.50;;;5.47;;
43487;SDS011;29078;41.932;25.554;2023-02-08T00:51:57;6.53;;;5.27;;
43487;SDS011;29078;41.932;25.554;2023-02-08T00:54:23;7.93;;;5.87;;
43487;SDS011;29078;41.932;25.554;2023-02-08T00:56:48;8.70;;;5.97;;
43487;SDS011;29078;41.932;25.554;2023-02-08T00:59:14;6.87;;;5.83;;
43487;SDS011;29078;41.932;25.554;2023-02-08T01:01:39;8.10;;;6.53;;
43487;SDS011;29078;41.932;25.554;2023-02-08T01:04:05;8.20;;;6.00;;
43487;SDS011;29078;41.932;25.554;2023-02-08T01:06:31;8.47;;;6.80;;
43487;SDS011;29078;41.932;25.554;2023-02-08T01:08:56;6.67;;;6.00;;
43487;SDS011;29078;41.932;25.554;2023-02-08T01:11:22;8.53;;;6.60;;
43487;SDS011;29078;41.932;25.554;2023-02-08T01:13:50;7.60;;;5.90;;
43487;SDS011;29078;41.932;25.554;2023-02-08T01:16:19;7.83;;;6.50;;
43487;SDS011;29078;41.932;25.554;2023-02-08T01:18:48;7.20;;;6.03;;
43487;SDS011;29078;41.932;25.554;2023-02-08T01:21:17;8.20;;;6.17;;
43487;SDS011;29078;41.932;25.554;2023-02-08T01:23:45;8.47;;;6.27;;
43487;SDS011;29078;41.932;25.554;2023-02-08T01:26:11;10.57;;;6.50;;
43487;SDS011;29078;41.932;25.554;2023-02-08T01:28:38;10.00;;;7.13;;
43487;SDS011;29078;41.932;25.554;2023-02-08T01:31:15;9.83;;;7.73;;
43487;SDS011;29078;41.932;25.554;2023-02-08T01:33:42;9.80;;;6.63;;
43487;SDS011;29078;41.932;25.554;2023-02-08T01:36:08;10.47;;;7.10;;
43487;SDS011;29078;41.932;25.554;2023-02-08T01:38:34;8.83;;;6.40;;
43487;SDS011;29078;41.932;25.554;2023-02-08T01:41:01;8.77;;;6.20;;
43487;SDS011;29078;41.932;25.554;2023-02-08T01:43:29;7.53;;;6.17;;
43487;SDS011;29078;41.932;25.554;2023-02-08T01:46:17;7.97;;;6.20;;
43487;SDS011;29078;41.932;25.554;2023-02-08T01:48:42;7.23;;;5.93;;
43487;SDS011;29078;41.932;25.554;2023-02-08T01:51:10;10.20;;;7.50;;
43487;SDS011;29078;41.932;25.554;2023-02-08T01:53:43;11.13;;;8.37;;
43487;SDS011;29078;41.932;25.554;2023-02-08T01:56:10;14.97;;;10.37;;
43487;SDS011;29078;41.932;25.554;2023-02-08T01:58:41;14.80;;;10.70;;
43487;SDS011;29078;41.932;25.554;2023-02-08T02:01:10;15.43;;;11.87;;
43487;SDS011;29078;41.932;25.554;2023-02-08T02:03:37;15.97;;;12.00;;
43487;SDS011;29078;41.932;25.554;2023-02-08T02:06:05;17.80;;;12.80;;
43487;SDS011;29078;41.932;25.554;2023-02-08T02:08:35;18.63;;;13.32;;
43487;SDS011;29078;41.932;25.554;2023-02-08T02:11:02;20.03;;;13.70;;
43487;SDS011;29078;41.932;25.554;2023-02-08T02:13:27;32.20;;;18.70;;
43487;SDS011;29078;41.932;25.554;2023-02-08T02:15:53;24.10;;;17.20;;
43487;SDS011;29078;41.932;25.554;2023-02-08T02:18:25;22.97;;;14.67;;
43487;SDS011;29078;41.932;25.554;2023-02-08T02:23:44;21.87;;;15.60;;
43487;SDS011;29078;41.932;25.554;2023-02-08T02:37:54;21.43;;;15.70;;
43487;SDS011;29078;41.932;25.554;2023-02-08T02:44:36;20.43;;;14.63;;
43487;SDS011;29078;41.932;25.554;2023-02-08T02:50:22;25.37;;;16.97;;
43487;SDS011;29078;41.932;25.554;2023-02-08T02:55:27;26.63;;;17.43;;
43487;SDS011;29078;41.932;25.554;2023-02-08T02:57:57;29.07;;;18.30;;
43487;SDS011;29078;41.932;25.554;2023-02-08T03:00:26;26.60;;;17.93;;
43487;SDS011;29078;41.932;25.554;2023-02-08T03:02:53;27.03;;;18.93;;
43487;SDS011;29078;41.932;25.554;2023-02-08T03:05:19;29.63;;;19.67;;
43487;SDS011;29078;41.932;25.554;2023-02-08T03:10:17;29.63;;;19.40;;
43487;SDS011;29078;41.932;25.554;2023-02-08T03:29:43;29.50;;;19.60;;
43487;SDS011;29078;41.932;25.554;2023-02-08T03:35:10;28.53;;;19.57;;
43487;SDS011;29078;41.932;25.554;2023-02-08T03:37:48;26.90;;;18.50;;
43487;SDS011;29078;41.932;25.554;2023-02-08T03:40:20;26.73;;;17.83;;
43487;SDS011;29078;41.932;25.554;2023-02-08T03:42:49;27.90;;;20.07;;
43487;SDS011;29078;41.932;25.554;2023-02-08T03:45:26;25.63;;;18.17;;
43487;SDS011;29078;41.932;25.554;2023-02-08T03:47:56;26.23;;;18.33;;
43487;SDS011;29078;41.932;25.554;2023-02-08T03:50:28;25.00;;;17.37;;
43487;SDS011;29078;41.932;25.554;2023-02-08T03:52:56;28.90;;;19.20;;
43487;SDS011;29078;41.932;25.554;2023-02-08T03:55:29;28.67;;;20.17;;
43487;SDS011;29078;41.932;25.554;2023-02-08T03:58:05;27.10;;;17.97;;
43487;SDS011;29078;41.932;25.554;2023-02-08T04:00:38;32.73;;;20.13;;
43487;SDS011;29078;41.932;25.554;2023-02-08T04:05:46;31.30;;;19.87;;
43487;SDS011;29078;41.932;25.554;2023-02-08T04:08:13;30.60;;;19.27;;
43487;SDS011;29078;41.932;25.554;2023-02-08T04:10:38;26.30;;;18.27;;
43487;SDS011;29078;41.932;25.554;2023-02-08T04:13:04;33.23;;;20.50;;
43487;SDS011;29078;41.932;25.554;2023-02-08T04:15:29;31.03;;;20.60;;
43487;SDS011;29078;41.932;25.554;2023-02-08T04:17:55;29.27;;;20.77;;
43487;SDS011;29078;41.932;25.554;2023-02-08T04:20:20;32.07;;;20.87;;
43487;SDS011;29078;41.932;25.554;2023-02-08T04:22:45;29.73;;;19.67;;
43487;SDS011;29078;41.932;25.554;2023-02-08T04:25:11;28.50;;;19.97;;
43487;SDS011;29078;41.932;25.554;2023-02-08T04:27:36;26.90;;;18.60;;
43487;SDS011;29078;41.932;25.554;2023-02-08T04:30:02;30.87;;;21.00;;
43487;SDS011;29078;41.932;25.554;2023-02-08T04:32:29;30.37;;;19.73;;
43487;SDS011;29078;41.932;25.554;2023-02-08T04:34:54;30.67;;;20.97;;
43487;SDS011;29078;41.932;25.554;2023-02-08T04:37:19;37.07;;;24.60;;
43487;SDS011;29078;41.932;25.554;2023-02-08T04:39:45;33.70;;;23.53;;
43487;SDS011;29078;41.932;25.554;2023-02-08T04:42:10;34.00;;;21.53;;
43487;SDS011;29078;41.932;25.554;2023-02-08T04:44:36;30.00;;;20.43;;
43487;SDS011;29078;41.932;25.554;2023-02-08T04:47:01;29.80;;;21.10;;
43487;SDS011;29078;41.932;25.554;2023-02-08T04:49:26;27.13;;;19.27;;
43487;SDS011;29078;41.932;25.554;2023-02-08T04:51:52;31.80;;;21.80;;
43487;SDS011;29078;41.932;25.554;2023-02-08T04:54:17;29.67;;;19.50;;
43487;SDS011;29078;41.932;25.554;2023-02-08T04:56:43;29.73;;;20.43;;
43487;SDS011;29078;41.932;25.554;2023-02-08T04:59:08;31.93;;;22.43;;
43487;SDS011;29078;41.932;25.554;2023-02-08T05:01:34;30.97;;;21.37;;
43487;SDS011;29078;41.932;25.554;2023-02-08T05:03:59;31.50;;;19.97;;
43487;SDS011;29078;41.932;25.554;2023-02-08T05:06:24;29.10;;;20.53;;
43487;SDS011;29078;41.932;25.554;2023-02-08T05:08:50;35.00;;;21.43;;
43487;SDS011;29078;41.932;25.554;2023-02-08T05:11:19;33.50;;;21.67;;
43487;SDS011;29078;41.932;25.554;2023-02-08T05:13:45;30.17;;;20.70;;
43487;SDS011;29078;41.932;25.554;2023-02-08T05:16:10;31.33;;;20.87;;
43487;SDS011;29078;41.932;25.554;2023-02-08T05:18:36;31.23;;;21.93;;
43487;SDS011;29078;41.932;25.554;2023-02-08T05:21:01;28.27;;;19.77;;
43487;SDS011;29078;41.932;25.554;2023-02-08T05:23:28;36.93;;;22.90;;
43487;SDS011;29078;41.932;25.554;2023-02-08T05:25:53;30.27;;;22.27;;
43487;SDS011;29078;41.932;25.554;2023-02-08T05:28:19;34.17;;;20.97;;
43487;SDS011;29078;41.932;25.554;2023-02-08T05:30:45;31.53;;;21.90;;
43487;SDS011;29078;41.932;25.554;2023-02-08T05:33:11;29.80;;;20.43;;
43487;SDS011;29078;41.932;25.554;2023-02-08T05:35:37;32.00;;;20.80;;
43487;SDS011;29078;41.932;25.554;2023-02-08T05:38:02;33.47;;;21.37;;
43487;SDS011;29078;41.932;25.554;2023-02-08T05:40:28;36.83;;;23.80;;
43487;SDS011;29078;41.932;25.554;2023-02-08T05:42:53;32.87;;;20.47;;
43487;SDS011;29078;41.932;25.554;2023-02-08T05:45:19;29.37;;;20.73;;
43487;SDS011;29078;41.932;25.554;2023-02-08T05:47:44;32.80;;;21.33;;
43487;SDS011;29078;41.932;25.554;2023-02-08T05:50:11;33.30;;;21.37;;
43487;SDS011;29078;41.932;25.554;2023-02-08T05:52:37;32.20;;;21.33;;
43487;SDS011;29078;41.932;25.554;2023-02-08T05:55:02;28.27;;;19.27;;
43487;SDS011;29078;41.932;25.554;2023-02-08T05:57:28;30.93;;;19.50;;
43487;SDS011;29078;41.932;25.554;2023-02-08T05:59:53;34.50;;;22.10;;
43487;SDS011;29078;41.932;25.554;2023-02-08T06:02:19;29.93;;;21.10;;
43487;SDS011;29078;41.932;25.554;2023-02-08T06:04:44;32.07;;;19.37;;
43487;SDS011;29078;41.932;25.554;2023-02-08T06:07:10;26.47;;;18.13;;
43487;SDS011;29078;41.932;25.554;2023-02-08T06:09:36;31.33;;;19.27;;
43487;SDS011;29078;41.932;25.554;2023-02-08T06:12:01;29.87;;;20.43;;
43487;SDS011;29078;41.932;25.554;2023-02-08T06:14:27;27.90;;;19.63;;
43487;SDS011;29078;41.932;25.554;2023-02-08T06:16:52;30.97;;;19.97;;
43487;SDS011;29078;41.932;25.554;2023-02-08T06:19:18;28.93;;;20.17;;
43487;SDS011;29078;41.932;25.554;2023-02-08T06:21:43;32.37;;;21.20;;
43487;SDS011;29078;41.932;25.554;2023-02-08T06:24:09;34.93;;;22.93;;
43487;SDS011;29078;41.932;25.554;2023-02-08T06:26:35;29.53;;;20.10;;
43487;SDS011;29078;41.932;25.554;2023-02-08T06:29:00;28.33;;;19.23;;
43487;SDS011;29078;41.932;25.554;2023-02-08T06:31:26;27.53;;;18.63;;
43487;SDS011;29078;41.932;25.554;2023-02-08T06:33:51;28.17;;;18.77;;
43487;SDS011;29078;41.932;25.554;2023-02-08T06:36:17;25.47;;;18.37;;
43487;SDS011;29078;41.932;25.554;2023-02-08T06:38:42;29.17;;;19.37;;
43487;SDS011;29078;41.932;25.554;2023-02-08T06:41:07;25.63;;;18.73;;
43487;SDS011;29078;41.932;25.554;2023-02-08T06:43:33;25.20;;;18.03;;
43487;SDS011;29078;41.932;25.554;2023-02-08T06:45:59;29.93;;;20.90;;
43487;SDS011;29078;41.932;25.554;2023-02-08T06:48:24;32.50;;;21.67;;
43487;SDS011;29078;41.932;25.554;2023-02-08T06:50:52;35.20;;;22.10;;
43487;SDS011;29078;41.932;25.554;2023-02-08T06:53:19;35.40;;;23.07;;
43487;SDS011;29078;41.932;25.554;2023-02-08T06:55:48;34.00;;;23.47;;
43487;SDS011;29078;41.932;25.554;2023-02-08T06:58:14;31.73;;;20.93;;
43487;SDS011;29078;41.932;25.554;2023-02-08T07:00:39;35.93;;;22.57;;
43487;SDS011;29078;41.932;25.554;2023-02-08T07:03:05;28.93;;;20.37;;
43487;SDS011;29078;41.932;25.554;2023-02-08T07:05:33;31.10;;;21.47;;
43487;SDS011;29078;41.932;25.554;2023-02-08T07:07:59;30.63;;;21.30;;
43487;SDS011;29078;41.932;25.554;2023-02-08T07:10:24;32.57;;;22.07;;
43487;SDS011;29078;41.932;25.554;2023-02-08T07:12:50;31.47;;;20.37;;
43487;SDS011;29078;41.932;25.554;2023-02-08T07:15:15;29.47;;;20.23;;
43487;SDS011;29078;41.932;25.554;2023-02-08T07:17:41;30.10;;;21.13;;
43487;SDS011;29078;41.932;25.554;2023-02-08T07:20:07;29.03;;;19.03;;
43487;SDS011;29078;41.932;25.554;2023-02-08T07:22:33;33.37;;;19.50;;
43487;SDS011;29078;41.932;25.554;2023-02-08T07:24:59;27.53;;;18.50;;
43487;SDS011;29078;41.932;25.554;2023-02-08T07:27:24;26.60;;;19.67;;
43487;SDS011;29078;41.932;25.554;2023-02-08T07:29:50;27.43;;;19.20;;
43487;SDS011;29078;41.932;25.554;2023-02-08T07:32:15;26.00;;;17.70;;
43487;SDS011;29078;41.932;25.554;2023-02-08T07:34:40;24.43;;;17.60;;
43487;SDS011;29078;41.932;25.554;2023-02-08T07:37:06;27.27;;;19.80;;
43487;SDS011;29078;41.932;25.554;2023-02-08T07:39:32;26.90;;;18.03;;
43487;SDS011;29078;41.932;25.554;2023-02-08T07:41:57;28.60;;;18.27;;
43487;SDS011;29078;41.932;25.554;2023-02-08T07:44:23;29.20;;;18.97;;
43487;SDS011;29078;41.932;25.554;2023-02-08T07:46:49;24.17;;;16.77;;
43487;SDS011;29078;41.932;25.554;2023-02-08T07:49:14;26.27;;;16.73;;
43487;SDS011;29078;41.932;25.554;2023-02-08T07:51:40;22.17;;;16.03;;
43487;SDS011;29078;41.932;25.554;2023-02-08T07:54:05;26.23;;;15.13;;
43487;SDS011;29078;41.932;25.554;2023-02-08T07:56:30;24.77;;;17.33;;
43487;SDS011;29078;41.932;25.554;2023-02-08T07:58:56;24.17;;;16.20;;
43487;SDS011;29078;41.932;25.554;2023-02-08T08:01:21;26.43;;;16.87;;
43487;SDS011;29078;41.932;25.554;2023-02-08T08:03:47;23.40;;;16.37;;
43487;SDS011;29078;41.932;25.554;2023-02-08T08:06:13;21.17;;;14.73;;
43487;SDS011;29078;41.932;25.554;2023-02-08T08:08:39;24.47;;;17.47;;
43487;SDS011;29078;41.932;25.554;2023-02-08T08:11:04;22.43;;;16.37;;
43487;SDS011;29078;41.932;25.554;2023-02-08T08:13:30;21.03;;;15.30;;
43487;SDS011;29078;41.932;25.554;2023-02-08T08:15:56;18.77;;;12.27;;
43487;SDS011;29078;41.932;25.554;2023-02-08T08:18:21;19.40;;;12.63;;
43487;SDS011;29078;41.932;25.554;2023-02-08T08:20:46;17.60;;;13.10;;
43487;SDS011;29078;41.932;25.554;2023-02-08T08:23:12;17.53;;;13.07;;
43487;SDS011;29078;41.932;25.554;2023-02-08T08:25:37;18.17;;;13.47;;
43487;SDS011;29078;41.932;25.554;2023-02-08T08:28:03;19.40;;;12.90;;
43487;SDS011;29078;41.932;25.554;2023-02-08T08:30:29;16.87;;;11.77;;
43487;SDS011;29078;41.932;25.554;2023-02-08T08:32:54;14.97;;;11.20;;
43487;SDS011;29078;41.932;25.554;2023-02-08T08:35:20;14.30;;;11.10;;
43487;SDS011;29078;41.932;25.554;2023-02-08T08:37:45;12.30;;;9.70;;
43487;SDS011;29078;41.932;25.554;2023-02-08T08:40:10;14.83;;;11.60;;
43487;SDS011;29078;41.932;25.554;2023-02-08T08:42:36;16.00;;;12.47;;
43487;SDS011;29078;41.932;25.554;2023-02-08T08:45:04;16.43;;;11.57;;
43487;SDS011;29078;41.932;25.554;2023-02-08T08:47:30;14.27;;;9.70;;
43487;SDS011;29078;41.932;25.554;2023-02-08T08:49:55;14.97;;;11.23;;
43487;SDS011;29078;41.932;25.554;2023-02-08T08:52:20;17.90;;;11.93;;
43487;SDS011;29078;41.932;25.554;2023-02-08T08:54:46;15.67;;;11.70;;
43487;SDS011;29078;41.932;25.554;2023-02-08T08:57:11;18.20;;;13.60;;
43487;SDS011;29078;41.932;25.554;2023-02-08T08:59:37;14.80;;;11.83;;
43487;SDS011;29078;41.932;25.554;2023-02-08T09:02:02;15.30;;;11.00;;
43487;SDS011;29078;41.932;25.554;2023-02-08T09:04:28;15.87;;;12.70;;
43487;SDS011;29078;41.932;25.554;2023-02-08T09:06:53;21.20;;;14.03;;
43487;SDS011;29078;41.932;25.554;2023-02-08T09:09:19;14.70;;;11.73;;
43487;SDS011;29078;41.932;25.554;2023-02-08T09:11:46;15.80;;;12.07;;
43487;SDS011;29078;41.932;25.554;2023-02-08T09:14:11;16.03;;;11.13;;
43487;SDS011;29078;41.932;25.554;2023-02-08T09:16:39;20.27;;;13.57;;
43487;SDS011;29078;41.932;25.554;2023-02-08T09:19:05;18.37;;;12.67;;
43487;SDS011;29078;41.932;25.554;2023-02-08T09:21:33;18.47;;;12.63;;
43487;SDS011;29078;41.932;25.554;2023-02-08T09:24:02;18.13;;;12.80;;
43487;SDS011;29078;41.932;25.554;2023-02-08T09:26:28;20.40;;;14.77;;
43487;SDS011;29078;41.932;25.554;2023-02-08T09:28:53;23.73;;;13.90;;
43487;SDS011;29078;41.932;25.554;2023-02-08T09:31:20;25.57;;;15.00;;
43487;SDS011;29078;41.932;25.554;2023-02-08T09:33:48;18.17;;;12.30;;
43487;SDS011;29078;41.932;25.554;2023-02-08T09:36:15;16.23;;;12.77;;
43487;SDS011;29078;41.932;25.554;2023-02-08T09:38:41;16.80;;;12.83;;
43487;SDS011;29078;41.932;25.554;2023-02-08T09:43:49;16.73;;;12.40;;
43487;SDS011;29078;41.932;25.554;2023-02-08T09:46:19;16.17;;;11.23;;
43487;SDS011;29078;41.932;25.554;2023-02-08T09:48:46;15.80;;;11.80;;
43487;SDS011;29078;41.932;25.554;2023-02-08T09:54:34;15.10;;;10.73;;
43487;SDS011;29078;41.932;25.554;2023-02-08T09:57:03;14.23;;;11.23;;
43487;SDS011;29078;41.932;25.554;2023-02-08T09:59:34;16.50;;;11.30;;
43487;SDS011;29078;41.932;25.554;2023-02-08T10:02:09;15.93;;;10.23;;
43487;SDS011;29078;41.932;25.554;2023-02-08T10:04:48;17.13;;;10.70;;
43487;SDS011;29078;41.932;25.554;2023-02-08T10:07:16;15.43;;;10.77;;
43487;SDS011;29078;41.932;25.554;2023-02-08T10:09:42;20.13;;;12.67;;
43487;SDS011;29078;41.932;25.554;2023-02-08T10:18:03;15.10;;;8.83;;
43487;SDS011;29078;41.932;25.554;2023-02-08T10:21:04;14.07;;;9.60;;
43487;SDS011;29078;41.932;25.554;2023-02-08T10:26:27;15.90;;;11.23;;
43487;SDS011;29078;41.932;25.554;2023-02-08T10:29:14;13.63;;;8.73;;
43487;SDS011;29078;41.932;25.554;2023-02-08T10:31:53;12.00;;;8.33;;
43487;SDS011;29078;41.932;25.554;2023-02-08T10:34:49;10.77;;;8.70;;
43487;SDS011;29078;41.932;25.554;2023-02-08T10:37:20;12.67;;;9.30;;
43487;SDS011;29078;41.932;25.554;2023-02-08T10:39:51;11.20;;;9.07;;
43487;SDS011;29078;41.932;25.554;2023-02-08T10:42:18;12.63;;;8.20;;
43487;SDS011;29078;41.932;25.554;2023-02-08T10:44:52;10.37;;;8.57;;
43487;SDS011;29078;41.932;25.554;2023-02-08T10:47:26;14.70;;;10.33;;
43487;SDS011;29078;41.932;25.554;2023-02-08T10:49:59;13.07;;;9.13;;
43487;SDS011;29078;41.932;25.554;2023-02-08T10:52:29;12.50;;;9.60;;
43487;SDS011;29078;41.932;25.554;2023-02-08T10:54:58;10.30;;;8.03;;
43487;SDS011;29078;41.932;25.554;2023-02-08T10:57:24;11.23;;;8.53;;
43487;SDS011;29078;41.932;25.554;2023-02-08T10:59:58;11.93;;;8.90;;
43487;SDS011;29078;41.932;25.554;2023-02-08T11:02:34;13.03;;;9.40;;
43487;SDS011;29078;41.932;25.554;2023-02-08T11:05:06;14.33;;;11.20;;
43487;SDS011;29078;41.932;25.554;2023-02-08T11:07:36;12.65;;;9.00;;
43487;SDS011;29078;41.932;25.554;2023-02-08T11:12:36;11.07;;;8.97;;
43487;SDS011;29078;41.932;25.554;2023-02-08T11:15:04;12.93;;;10.10;;
43487;SDS011;29078;41.932;25.554;2023-02-08T11:17:30;11.87;;;8.80;;
43487;SDS011;29078;41.932;25.554;2023-02-08T11:19:58;13.10;;;9.77;;
43487;SDS011;29078;41.932;25.554;2023-02-08T11:22:25;14.27;;;9.97;;
43487;SDS011;29078;41.932;25.554;2023-02-08T11:25:02;11.63;;;8.97;;
43487;SDS011;29078;41.932;25.554;2023-02-08T11:27:34;10.37;;;8.10;;
43487;SDS011;29078;41.932;25.554;2023-02-08T11:32:39;14.37;;;10.13;;
43487;SDS011;29078;41.932;25.554;2023-02-08T11:35:17;11.10;;;6.83;;
43487;SDS011;29078;41.932;25.554;2023-02-08T11:37:49;10.43;;;7.90;;
43487;SDS011;29078;41.932;25.554;2023-02-08T11:40:24;13.43;;;8.07;;
43487;SDS011;29078;41.932;25.554;2023-02-08T11:42:53;11.37;;;7.70;;
43487;SDS011;29078;41.932;25.554;2023-02-08T11:45:23;13.27;;;10.00;;
43487;SDS011;29078;41.932;25.554;2023-02-08T11:47:51;12.73;;;8.13;;
43487;SDS011;29078;41.932;25.554;2023-02-08T11:50:31;12.30;;;9.17;;
43487;SDS011;29078;41.932;25.554;2023-02-08T11:53:06;11.60;;;9.20;;
43487;SDS011;29078;41.932;25.554;2023-02-08T11:55:44;11.40;;;9.02;;
43487;SDS011;29078;41.932;25.554;2023-02-08T12:00:35;12.33;;;9.37;;
43487;SDS011;29078;41.932;25.554;2023-02-08T12:03:03;16.70;;;11.10;;
43487;SDS011;29078;41.932;25.554;2023-02-08T12:08:19;11.90;;;8.03;;
43487;SDS011;29078;41.932;25.554;2023-02-08T12:13:48;15.00;;;8.60;;
43487;SDS011;29078;41.932;25.554;2023-02-08T12:22:23;10.23;;;7.23;;
43487;SDS011;29078;41.932;25.554;2023-02-08T12:27:26;9.97;;;7.50;;
43487;SDS011;29078;41.932;25.554;2023-02-08T12:41:39;10.85;;;7.90;;
43487;SDS011;29078;41.932;25.554;2023-02-08T12:54:49;11.30;;;8.70;;
43487;SDS011;29078;41.932;25.554;2023-02-08T12:57:21;11.70;;;8.33;;
43487;SDS011;29078;41.932;25.554;2023-02-08T13:00:00;13.63;;;9.47;;
43487;SDS011;29078;41.932;25.554;2023-02-08T13:02:30;9.57;;;7.73;;
43487;SDS011;29078;41.932;25.554;2023-02-08T13:05:01;13.20;;;9.27;;
43487;SDS011;29078;41.932;25.554;2023-02-08T13:10:20;14.73;;;8.97;;
43487;SDS011;29078;41.932;25.554;2023-02-08T13:12:57;13.43;;;7.80;;
43487;SDS011;29078;41.932;25.554;2023-02-08T13:15:34;11.93;;;7.57;;
43487;SDS011;29078;41.932;25.554;2023-02-08T13:18:20;11.43;;;7.93;;
43487;SDS011;29078;41.932;25.554;2023-02-08T13:21:06;15.33;;;7.20;;
43487;SDS011;29078;41.932;25.554;2023-02-08T13:23:38;11.33;;;8.67;;
43487;SDS011;29078;41.932;25.554;2023-02-08T13:26:07;13.23;;;8.57;;
43487;SDS011;29078;41.932;25.554;2023-02-08T13:28:37;14.10;;;8.13;;
43487;SDS011;29078;41.932;25.554;2023-02-08T13:33:46;15.03;;;9.07;;
43487;SDS011;29078;41.932;25.554;2023-02-08T13:36:19;16.70;;;11.00;;
43487;SDS011;29078;41.932;25.554;2023-02-08T13:38:46;11.30;;;8.47;;
43487;SDS011;29078;41.932;25.554;2023-02-08T13:41:16;12.53;;;9.17;;
43487;SDS011;29078;41.932;25.554;2023-02-08T13:43:48;10.43;;;8.00;;
43487;SDS011;29078;41.932;25.554;2023-02-08T13:46:18;11.20;;;8.23;;
43487;SDS011;29078;41.932;25.554;2023-02-08T13:48:46;12.30;;;8.40;;
43487;SDS011;29078;41.932;25.554;2023-02-08T13:59:01;10.33;;;7.73;;
43487;SDS011;29078;41.932;25.554;2023-02-08T14:01:28;11.73;;;8.33;;
43487;SDS011;29078;41.932;25.554;2023-02-08T14:06:54;12.90;;;8.83;;
43487;SDS011;29078;41.932;25.554;2023-02-08T14:09:27;10.43;;;7.43;;
43487;SDS011;29078;41.932;25.554;2023-02-08T14:17:53;11.50;;;8.47;;
43487;SDS011;29078;41.932;25.554;2023-02-08T14:23:04;12.17;;;8.57;;
43487;SDS011;29078;41.932;25.554;2023-02-08T14:25:44;9.13;;;7.43;;
43487;SDS011;29078;41.932;25.554;2023-02-08T14:28:33;10.10;;;7.57;;
43487;SDS011;29078;41.932;25.554;2023-02-08T14:31:03;10.80;;;7.40;;
43487;SDS011;29078;41.932;25.554;2023-02-08T14:33:35;10.30;;;7.83;;
43487;SDS011;29078;41.932;25.554;2023-02-08T14:41:51;13.13;;;8.90;;
43487;SDS011;29078;41.932;25.554;2023-02-08T14:49:48;11.50;;;8.87;;
43487;SDS011;29078;41.932;25.554;2023-02-08T14:52:20;13.87;;;9.90;;
43487;SDS011;29078;41.932;25.554;2023-02-08T14:54:58;12.37;;;8.73;;
43487;SDS011;29078;41.932;25.554;2023-02-08T14:57:31;13.60;;;9.15;;
43487;SDS011;29078;41.932;25.554;2023-02-08T15:00:00;14.07;;;9.73;;
43487;SDS011;29078;41.932;25.554;2023-02-08T15:02:29;14.73;;;9.33;;
43487;SDS011;29078;41.932;25.554;2023-02-08T15:04:58;17.37;;;9.20;;
43487;SDS011;29078;41.932;25.554;2023-02-08T15:10:04;11.60;;;8.17;;
43487;SDS011;29078;41.932;25.554;2023-02-08T15:12:36;13.53;;;9.93;;
43487;SDS011;29078;41.932;25.554;2023-02-08T15:15:04;12.93;;;8.93;;
43487;SDS011;29078;41.932;25.554;2023-02-08T15:17:40;10.20;;;7.87;;
43487;SDS011;29078;41.932;25.554;2023-02-08T15:22:47;11.43;;;8.50;;
43487;SDS011;29078;41.932;25.554;2023-02-08T15:27:53;12.83;;;8.47;;
43487;SDS011;29078;41.932;25.554;2023-02-08T15:30:24;13.32;;;9.77;;
43487;SDS011;29078;41.932;25.554;2023-02-08T15:32:56;13.77;;;10.53;;
43487;SDS011;29078;41.932;25.554;2023-02-08T15:35:22;13.17;;;9.17;;
43487;SDS011;29078;41.932;25.554;2023-02-08T15:37:50;11.20;;;8.30;;
43487;SDS011;29078;41.932;25.554;2023-02-08T15:40:21;12.07;;;9.13;;
43487;SDS011;29078;41.932;25.554;2023-02-08T15:42:49;11.13;;;9.03;;
43487;SDS011;29078;41.932;25.554;2023-02-08T15:45:22;12.30;;;8.87;;
43487;SDS011;29078;41.932;25.554;2023-02-08T15:47:49;13.13;;;9.67;;
43487;SDS011;29078;41.932;25.554;2023-02-08T15:50:18;16.67;;;10.00;;
43487;SDS011;29078;41.932;25.554;2023-02-08T15:52:45;17.70;;;10.77;;
43487;SDS011;29078;41.932;25.554;2023-02-08T15:55:15;13.50;;;9.30;;
43487;SDS011;29078;41.932;25.554;2023-02-08T15:57:45;15.10;;;9.73;;
43487;SDS011;29078;41.932;25.554;2023-02-08T16:00:28;15.83;;;10.40;;
43487;SDS011;29078;41.932;25.554;2023-02-08T16:03:08;19.90;;;13.03;;
43487;SDS011;29078;41.932;25.554;2023-02-08T16:05:41;14.20;;;10.13;;
43487;SDS011;29078;41.932;25.554;2023-02-08T16:08:14;23.48;;;13.48;;
43487;SDS011;29078;41.932;25.554;2023-02-08T16:10:46;13.53;;;9.57;;
43487;SDS011;29078;41.932;25.554;2023-02-08T16:13:19;18.10;;;10.40;;
43487;SDS011;29078;41.932;25.554;2023-02-08T16:15:51;15.53;;;11.33;;
43487;SDS011;29078;41.932;25.554;2023-02-08T16:18:38;15.53;;;10.10;;
43487;SDS011;29078;41.932;25.554;2023-02-08T16:21:05;12.97;;;9.47;;
43487;SDS011;29078;41.932;25.554;2023-02-08T16:23:47;16.23;;;9.57;;
43487;SDS011;29078;41.932;25.554;2023-02-08T16:26:23;18.02;;;9.95;;
43487;SDS011;29078;41.932;25.554;2023-02-08T16:28:52;10.73;;;8.57;;
43487;SDS011;29078;41.932;25.554;2023-02-08T16:31:24;12.50;;;8.83;;
43487;SDS011;29078;41.932;25.554;2023-02-08T16:34:04;12.77;;;9.07;;
43487;SDS011;29078;41.932;25.554;2023-02-08T16:36:35;15.53;;;9.80;;
43487;SDS011;29078;41.932;25.554;2023-02-08T16:46:53;14.67;;;10.37;;
43487;SDS011;29078;41.932;25.554;2023-02-08T16:49:18;16.50;;;11.33;;
43487;SDS011;29078;41.932;25.554;2023-02-08T16:51:44;17.10;;;10.67;;
43487;SDS011;29078;41.932;25.554;2023-02-08T16:54:13;23.23;;;12.83;;
43487;SDS011;29078;41.932;25.554;2023-02-08T16:56:42;19.37;;;11.50;;
43487;SDS011;29078;41.932;25.554;2023-02-08T16:59:09;17.50;;;11.27;;
43487;SDS011;29078;41.932;25.554;2023-02-08T17:01:36;16.60;;;11.67;;
43487;SDS011;29078;41.932;25.554;2023-02-08T17:04:02;17.77;;;11.27;;